• Join FlightAware (Why Join?)
  • Login
  • US Flag 
12:37AM EDT


 

Airport Tracker/Info


-or-


 

Live Flight TrackerFlight Track Log ✈ TAM8053 ✈ 30-Jul-2013 ✈ KMIA - SBCF / CNF

Flight Track Log - Related Links

Times and Time Zones

All times are in EDT time to prevent confusion due to time zone crossing. See the TAM8053 flight status page for this flight to view local times or setup timezone preferences in your user account.

Time Position Orientation Groundspeed Altitude Reporting Facility
EDT Latitude Longitude Course Direction KTS MPH feet Rate Location/Type
10:20AM 25.8010 -80.2860 90° East 165 190  Level FlightAware
10:20AM 25.8020 -80.2680 86° East 183 211 400 1,980 Climbing FlightAware
10:20AM 25.8010 -80.2610 99° East 179 206 900 3,720 Climbing FlightAware
10:20AM 25.7990 -80.2540 108° East 172 198 1,400 2,520 Climbing FlightAware
10:20AM 25.7950 -80.2450 116° Southeast 179 206 1,800 1,920 Climbing FlightAware
10:21AM 25.7850 -80.2260 120° Southeast 189 217 2,500 2,040 Climbing FlightAware
10:21AM 25.7810 -80.2180 119° Southeast 189 217 2,900 1,740 Climbing FlightAware
10:21AM 25.7710 -80.2000 122° Southeast 212 244 3,400 1,440 Climbing FlightAware
10:21AM 25.7630 -80.1940 146° Southeast 226 260 3,600 1,560 Climbing FlightAware
10:22AM 25.7450 -80.1810 147° Southeast 241 277 4,200 2,040 Climbing FlightAware
10:22AM 25.7220 -80.1670 151° Southeast 252 290 5,100 2,460 Climbing FlightAware
10:22AM 25.7090 -80.1600 154° Southeast 255 293 5,600 2,520 Climbing FlightAware
10:23AM 25.6830 -80.1420 148° Southeast 265 305 6,700 2,460 Climbing FlightAware
10:23AM 25.6620 -80.1250 144° Southeast 276 318 7,500 2,400 Climbing FlightAware
10:23AM 25.6510 -80.1140 138° Southeast 281 323 8,000 2,640 Climbing FlightAware
10:24AM 25.6280 -80.0930 141° Southeast 284 327 9,100 2,820 Climbing FlightAware
10:24AM 25.6090 -80.0750 139° Southeast 288 331 10,000 1,920 Climbing FlightAware
10:25AM 25.5690 -80.0370 139° Southeast 324 373 10,900 1,320 Climbing FlightAware
10:25AM 25.5390 -80.0110 142° Southeast 351 404 11,400 1,320 Climbing FlightAware
10:25AM 25.5140 -80.0000 158° South 366 421 11,800 1,980 Climbing FlightAware
10:26AM 25.4590 -79.9900 171° South 382 440 13,000 2,220 Climbing FlightAware
10:26AM 25.3890 -79.9860 177° South 395 455 14,500 2,340 Climbing FlightAware
10:27AM 25.3350 -79.9640 160° South 392 451 15,800 2,460 Climbing FlightAware
10:28AM 25.2770 -79.9260 149° Southeast 397 457 17,300 2,340 Climbing FlightAware
10:28AM 25.2190 -79.8860 148° Southeast 404 465 18,700 2,100 Climbing FlightAware
10:29AM 25.1690 -79.8520 148° Southeast 420 483 19,700 1,860 Climbing FlightAware
10:29AM 25.1090 -79.8110 148° Southeast 422 486 20,800 1,800 Climbing FlightAware
10:30AM 25.0470 -79.7690 148° Southeast 440 506 21,900 1,740 Climbing FlightAware
10:30AM 24.9910 -79.7310 148° Southeast 441 507 22,800 1,680 Climbing FlightAware
10:31AM 24.9180 -79.6820 149° Southeast 452 520 23,900 1,620 Climbing FlightAware
10:32AM 24.8610 -79.6440 149° Southeast 460 529 24,700 1,560 Climbing FlightAware
10:32AM 24.7960 -79.6000 148° Southeast 472 543 25,700 1,620 Climbing FlightAware
10:33AM 24.7260 -79.5530 149° Southeast 471 542 26,700 1,620 Climbing FlightAware
10:33AM 24.6580 -79.5080 149° Southeast 473 544 27,700 1,800 Climbing FlightAware
10:34AM 24.5900 -79.4620 148° Southeast 471 542 28,900 1,740 Climbing FlightAware
10:34AM 24.5330 -79.4240 149° Southeast 470 541 29,700 1,500 Climbing FlightAware
10:35AM 24.4620 -79.3770 149° Southeast 471 542 30,600 1,380 Climbing FlightAware
10:36AM 24.3970 -79.3340 149° Southeast 471 542 31,400 1,440 Climbing FlightAware
10:36AM 24.3150 -79.2790 149° Southeast 474 545 32,500 1,140 Climbing FlightAware
10:37AM 24.2390 -79.2280 149° Southeast 473 544 33,000 360 Climbing FlightAware
10:38AM 24.1760 -79.1850 148° Southeast 473 544 33,000 -120 Level FlightAware
10:38AM 24.1200 -79.1340 140° Southeast 468 539 32,900 -120 Descending FlightAware
10:39AM 24.0880 -79.0700 119° Southeast 461 531 32,900  Level FlightAware
10:39AM 24.0690 -79.0090 109° East 462 532 32,900  Level FlightAware
10:41AM 24.0370 -78.8680 104° East 462 532 32,900  Level FlightAware
10:41AM 24.0160 -78.7980 108° East 462 532 32,900  Level FlightAware
10:42AM 23.9960 -78.7280 107° East 462 532 32,900  Level FlightAware
10:42AM 23.9700 -78.6430 108° East 462 532 32,900  Level FlightAware
10:43AM 23.9430 -78.5520 108° East 462 532 32,900  Level FlightAware
10:44AM 23.9230 -78.4840 108° East 462 532 32,900  Level FlightAware
10:45AM 23.9020 -78.4140 108° East 462 532 32,900  Level FlightAware
10:45AM 23.8820 -78.3460 108° East 462 532 32,900  Level FlightAware
10:46AM 23.8620 -78.2780 108° East 462 532 32,900  Level FlightAware
10:46AM 23.8420 -78.2100 108° East 462 532 32,900  Level FlightAware
10:47AM 23.8220 -78.1420 108° East 462 532 32,900  Level FlightAware
10:48AM 23.7950 -78.0520 108° East 462 532 32,900  Level FlightAware
10:48AM 23.7740 -77.9840 109° East 462 532 32,900  Level FlightAware
10:49AM 23.7540 -77.9140 107° East 462 532 32,900  Level FlightAware
10:52AM 23.5047 -77.6844 140° Southeast  Level Estimated
10:53AM 23.4082 -77.5958 140° Southeast  Level Estimated
10:54AM 23.3115 -77.5073 140° Southeast  Level Estimated
10:55AM 23.2149 -77.4189 140° Southeast  Level Estimated
10:56AM 23.1182 -77.3307 140° Southeast  Level Estimated
10:57AM 23.0214 -77.2426 140° Southeast  Level Estimated
10:58AM 22.9246 -77.1546 140° Southeast  Level Estimated
10:59AM 22.8277 -77.0667 140° Southeast  Level Estimated
11:00AM 22.7308 -76.9790 140° Southeast  Level Estimated
11:01AM 22.6338 -76.8913 140° Southeast  Level Estimated
11:02AM 22.5368 -76.8038 140° Southeast  Level Estimated
11:03AM 22.4397 -76.7165 140° Southeast  Level Estimated
11:04AM 22.3426 -76.6292 140° Southeast  Level Estimated
11:05AM 22.2455 -76.5421 140° Southeast  Level Estimated
11:06AM 22.1483 -76.4551 140° Southeast  Level Estimated
11:07AM 22.0510 -76.3682 140° Southeast  Level Estimated
11:08AM 21.9537 -76.2814 140° Southeast  Level Estimated
11:09AM 21.8564 -76.1948 140° Southeast  Level Estimated
11:10AM 21.7590 -76.1083 140° Southeast  Level Estimated
11:11AM 21.6616 -76.0218 140° Southeast  Level Estimated
11:12AM 21.5641 -75.9355 141° Southeast  Level Estimated
11:13AM 21.4666 -75.8494 141° Southeast  Level Estimated
11:14AM 21.3690 -75.7633 141° Southeast  Level Estimated
11:15AM 21.2714 -75.6774 141° Southeast  Level Estimated
11:16AM 21.1738 -75.5915 141° Southeast  Level Estimated
11:17AM 21.0761 -75.5058 141° Southeast  Level Estimated
11:18AM 20.9783 -75.4202 141° Southeast  Level Estimated
11:19AM 20.8806 -75.3347 141° Southeast  Level Estimated
11:20AM 20.7827 -75.2493 141° Southeast  Level Estimated
11:21AM 20.6849 -75.1640 141° Southeast  Level Estimated
11:22AM 20.5870 -75.0788 141° Southeast  Level Estimated
11:23AM 20.4890 -74.9938 141° Southeast  Level Estimated
11:24AM 20.3910 -74.9088 141° Southeast  Level Estimated
11:25AM 20.2930 -74.8240 141° Southeast  Level Estimated
11:26AM 20.1949 -74.7393 141° Southeast  Level Estimated
11:27AM 20.0968 -74.6546 141° Southeast  Level Estimated
11:28AM 19.9987 -74.5701 141° Southeast  Level Estimated
11:29AM 19.9005 -74.4857 141° Southeast  Level Estimated
11:30AM 19.8023 -74.4014 141° Southeast  Level Estimated
11:31AM 19.7040 -74.3172 141° Southeast  Level Estimated
11:32AM 19.6057 -74.2331 141° Southeast  Level Estimated
11:33AM 19.5073 -74.1491 141° Southeast  Level Estimated
11:34AM 19.4089 -74.0652 141° Southeast  Level Estimated
11:35AM 19.3105 -73.9814 141° Southeast  Level Estimated
11:36AM 19.2121 -73.8977 141° Southeast  Level Estimated
11:37AM 19.1136 -73.8141 141° Southeast  Level Estimated
11:38AM 19.0150 -73.7306 141° Southeast  Level Estimated
11:39AM 18.9164 -73.6472 141° Southeast  Level Estimated
11:40AM 18.8178 -73.5639 141° Southeast  Level Estimated
11:41AM 18.7192 -73.4807 141° Southeast  Level Estimated
11:42AM 18.6205 -73.3976 141° Southeast  Level Estimated
11:43AM 18.5218 -73.3146 141° Southeast  Level Estimated
11:44AM 18.4230 -73.2317 141° Southeast  Level Estimated
11:45AM 18.3242 -73.1488 141° Southeast  Level Estimated
11:46AM 18.2254 -73.0661 142° Southeast  Level Estimated
11:47AM 18.1265 -72.9835 142° Southeast  Level Estimated
11:48AM 18.0276 -72.9009 142° Southeast  Level Estimated
11:49AM 17.9287 -72.8185 142° Southeast  Level Estimated
11:50AM 17.8297 -72.7362 142° Southeast  Level Estimated
11:51AM 17.7307 -72.6539 142° Southeast  Level Estimated
11:52AM 17.6317 -72.5717 142° Southeast  Level Estimated
11:53AM 17.5326 -72.4896 142° Southeast  Level Estimated
11:54AM 17.4335 -72.4077 142° Southeast  Level Estimated
11:55AM 17.3343 -72.3258 142° Southeast  Level Estimated
11:56AM 17.2352 -72.2439 142° Southeast  Level Estimated
11:57AM 17.1360 -72.1622 142° Southeast  Level Estimated
11:58AM 17.0367 -72.0806 142° Southeast  Level Estimated
11:59AM 16.9374 -71.9990 142° Southeast  Level Estimated
12:00PM 16.8381 -71.9176 142° Southeast  Level Estimated
12:01PM 16.7388 -71.8362 142° Southeast  Level Estimated
12:02PM 16.6394 -71.7549 142° Southeast  Level Estimated
12:03PM 16.5400 -71.6737 142° Southeast  Level Estimated
12:04PM 16.4406 -71.5926 142° Southeast  Level Estimated
12:05PM 16.3411 -71.5115 142° Southeast  Level Estimated
12:06PM 16.2416 -71.4306 142° Southeast  Level Estimated
12:07PM 16.1421 -71.3497 142° Southeast  Level Estimated
12:08PM 16.0426 -71.2689 142° Southeast  Level Estimated
12:09PM 15.9430 -71.1882 142° Southeast  Level Estimated
12:10PM 15.8434 -71.1076 142° Southeast  Level Estimated
12:11PM 15.7437 -71.0270 142° Southeast  Level Estimated
12:12PM 15.6440 -70.9465 142° Southeast  Level Estimated
12:13PM 15.5443 -70.8661 142° Southeast  Level Estimated
12:13PM 14.0030 -72.0250 142° Southeast 461 531 33,000  Level FlightAware
12:14PM 15.4446 -70.7858 142° Southeast  Level Estimated
12:14PM 13.9380 -71.9810 147° Southeast 461 531 33,000  Level FlightAware
12:14PM 13.8740 -71.9380 147° Southeast 461 531 33,000  Level FlightAware
12:15PM 13.8100 -71.8940 146° Southeast 467 537 33,000  Level FlightAware
12:16PM 13.7470 -71.8520 147° Southeast 466 536 33,000  Level FlightAware
12:16PM 13.6820 -71.8090 147° Southeast 466 536 33,000  Level FlightAware
12:17PM 13.6200 -71.7660 146° Southeast 466 536 33,000  Level FlightAware
12:17PM 13.5560 -71.7240 147° Southeast 466 536 33,000  Level FlightAware
12:18PM 13.4990 -71.6850 146° Southeast 465 535 33,000  Level FlightAware
12:19PM 13.4400 -71.6440 146° Southeast 465 535 33,000  Level FlightAware
12:19PM 13.3580 -71.5900 147° Southeast 467 537 33,000  Level FlightAware
12:19PM 13.3340 -71.5740 147° Southeast 461 531 33,000  Level FlightAware
12:20PM 13.2240 -71.5000 147° Southeast 461 531 33,000  Level FlightAware
12:21PM 13.1610 -71.4580 147° Southeast 462 532 33,000  Level FlightAware
12:22PM 13.0830 -71.4060 147° Southeast 462 532 33,000  Level FlightAware
12:23PM 12.9970 -71.3470 146° Southeast 462 532 33,000  Level FlightAware
12:23PM 12.9460 -71.3120 146° Southeast 462 532 33,000  Level FlightAware
12:24PM 12.8480 -71.2490 148° Southeast 462 532 33,000  Level FlightAware
12:24PM 12.7830 -71.2050 147° Southeast 462 532 33,000  Level FlightAware
12:25PM 12.7200 -71.1630 147° Southeast 462 532 33,000  Level FlightAware
12:26PM 12.6650 -71.1260 147° Southeast 460 529 33,000  Level FlightAware
12:26PM 12.5920 -71.0780 147° Southeast 460 529 33,000  Level FlightAware
12:27PM 12.5290 -71.0350 146° Southeast 466 536 33,000  Level FlightAware
12:27PM 12.4650 -70.9920 147° Southeast 466 536 33,000  Level FlightAware
12:28PM 12.4030 -70.9490 146° Southeast 465 535 33,000  Level FlightAware
12:28PM 12.3490 -70.9110 145° Southeast 465 535 33,000  Level FlightAware
12:29PM 12.2680 -70.8540 145° Southeast 464 534 33,000  Level FlightAware
12:30PM 12.2050 -70.8110 146° Southeast 464 534 33,000  Level FlightAware
12:30PM 12.1430 -70.7680 146° Southeast 464 534 33,000  Level FlightAware
12:31PM 12.0810 -70.7250 146° Southeast 464 534 33,000  Level FlightAware
12:32PM 12.0190 -70.6820 146° Southeast 463 533 33,000  Level FlightAware
12:32PM 11.9560 -70.6380 146° Southeast 456 525 33,000  Level FlightAware
12:33PM 11.8960 -70.5960 146° Southeast 455 524 33,000  Level FlightAware
12:33PM 11.8320 -70.5520 146° Southeast 455 524 33,000  Level FlightAware
12:34PM 11.7780 -70.5150 146° Southeast 454 522 33,000  Level FlightAware
12:35PM 11.7070 -70.4650 145° Southeast 453 521 33,000  Level FlightAware
12:35PM 11.6460 -70.4230 146° Southeast 453 521 33,000  Level FlightAware
12:36PM 11.5830 -70.3790 146° Southeast 453 521 33,000  Level FlightAware
12:36PM 11.5230 -70.3380 146° Southeast 453 521 33,000  Level FlightAware
12:37PM 11.4690 -70.3000 145° Southeast 452 520 33,000  Level FlightAware
12:37PM 11.3990 -70.2520 146° Southeast 452 520 33,000  Level FlightAware
12:38PM 11.3450 -70.2150 146° Southeast 452 520 33,000  Level FlightAware
12:39PM 11.2850 -70.1740 146° Southeast 453 521 33,000  Level FlightAware
12:39PM 11.2130 -70.1240 146° Southeast 454 522 33,000  Level FlightAware
12:40PM 11.1700 -70.0940 146° Southeast 454 522 33,000  Level FlightAware
12:40PM 11.0980 -70.0450 146° Southeast 454 522 33,000  Level FlightAware
12:41PM 11.0350 -70.0020 146° Southeast 455 524 33,000  Level FlightAware
12:41PM 10.9910 -69.9710 145° Southeast 463 533 33,000  Level FlightAware
12:42PM 10.9180 -69.9210 146° Southeast 463 533 33,000  Level FlightAware
12:43PM 10.8560 -69.8790 146° Southeast 464 534 33,000  Level FlightAware
12:43PM 10.7930 -69.8360 146° Southeast 463 533 33,000  Level FlightAware
12:44PM 10.7320 -69.7940 146° Southeast 462 532 33,000  Level FlightAware
12:44PM 10.6700 -69.7510 146° Southeast 462 532 33,000  Level FlightAware
12:45PM 10.5900 -69.6960 146° Southeast 454 522 33,000  Level FlightAware
12:46PM 10.5360 -69.6590 146° Southeast 454 522 33,000  Level FlightAware
12:46PM 10.4730 -69.6160 146° Southeast 453 521 33,000  Level FlightAware
12:47PM 10.3950 -69.5620 146° Southeast 452 520 33,000  Level FlightAware
12:47PM 10.3400 -69.5250 147° Southeast 451 519 33,000  Level FlightAware
12:48PM 10.2710 -69.4780 146° Southeast 452 520 33,000  Level FlightAware
12:49PM 10.2000 -69.4290 146° Southeast 451 519 33,000  Level FlightAware
12:49PM 10.1210 -69.3750 146° Southeast 449 517 33,000  Level FlightAware
12:50PM 10.0500 -69.3270 146° Southeast 450 518 33,000  Level FlightAware
12:51PM 9.9820 -69.2810 146° Southeast 449 517 33,000  Level FlightAware
12:52PM 9.8930 -69.2200 146° Southeast 447 514 33,000  Level FlightAware
12:52PM 9.8310 -69.1780 146° Southeast 445 512 33,000  Level FlightAware
12:53PM 9.7780 -69.1410 145° Southeast 445 512 33,000  Level FlightAware
12:53PM 9.7270 -69.1040 144° Southeast 445 512 33,000  Level FlightAware
12:54PM 9.6750 -69.0670 145° Southeast 445 512 33,000  Level FlightAware
12:55PM 9.6240 -69.0310 145° Southeast 445 512 33,000  Level FlightAware
12:55PM 9.5720 -68.9940 145° Southeast 445 512 33,000  Level FlightAware
12:56PM 9.5200 -68.9570 145° Southeast 445 512 33,000  Level FlightAware
12:56PM 9.4690 -68.9210 145° Southeast 445 512 33,000  Level FlightAware
12:57PM 9.4170 -68.8840 145° Southeast 445 512 33,000  Level FlightAware
12:58PM 9.3660 -68.8470 144° Southeast 445 512 33,000  Level FlightAware
12:58PM 9.3140 -68.8110 146° Southeast 445 512 33,000  Level FlightAware
12:59PM 9.2450 -68.7620 145° Southeast 445 512 33,000  Level FlightAware
01:00PM 9.1940 -68.7250 144° Southeast 445 512 33,000  Level FlightAware
01:00PM 9.1420 -68.6890 146° Southeast 445 512 33,000  Level FlightAware
01:01PM 9.0900 -68.6520 145° Southeast 445 512 33,000  Level FlightAware
01:01PM 9.0390 -68.6160 145° Southeast 445 512 33,000  Level FlightAware
01:02PM 8.9870 -68.5790 145° Southeast 445 512 33,000  Level FlightAware
01:05PM 8.7488 -68.3760 140° Southeast  Level Estimated
01:06PM 8.6522 -68.2938 140° Southeast  Level Estimated
01:07PM 8.5555 -68.2116 140° Southeast  Level Estimated
01:08PM 8.4589 -68.1295 140° Southeast  Level Estimated
01:09PM 8.3622 -68.0474 140° Southeast  Level Estimated
01:10PM 8.2656 -67.9654 140° Southeast  Level Estimated
01:11PM 8.1689 -67.8834 140° Southeast  Level Estimated
01:12PM 8.0722 -67.8014 140° Southeast  Level Estimated
01:13PM 7.9754 -67.7195 140° Southeast  Level Estimated
01:14PM 7.8787 -67.6376 140° Southeast  Level Estimated
01:15PM 7.7819 -67.5557 140° Southeast  Level Estimated
01:16PM 7.6852 -67.4739 140° Southeast  Level Estimated
01:17PM 7.5884 -67.3921 140° Southeast  Level Estimated
01:18PM 7.4916 -67.3104 140° Southeast  Level Estimated
01:19PM 7.3948 -67.2287 140° Southeast  Level Estimated
01:20PM 7.2979 -67.1470 140° Southeast  Level Estimated
01:21PM 7.2011 -67.0654 140° Southeast  Level Estimated
01:22PM 7.1042 -66.9838 140° Southeast  Level Estimated
01:23PM 7.0073 -66.9022 140° Southeast  Level Estimated
01:24PM 6.9104 -66.8207 140° Southeast  Level Estimated
01:25PM 6.8135 -66.7392 140° Southeast  Level Estimated
01:26PM 6.7166 -66.6577 140° Southeast  Level Estimated
01:27PM 6.6197 -66.5763 140° Southeast  Level Estimated
01:28PM 6.5227 -66.4949 140° Southeast  Level Estimated
01:29PM 6.4258 -66.4135 140° Southeast  Level Estimated
01:30PM 6.3288 -66.3322 140° Southeast  Level Estimated
01:31PM 6.2318 -66.2509 140° Southeast  Level Estimated
01:32PM 6.1348 -66.1696 140° Southeast  Level Estimated
01:33PM 6.0378 -66.0884 140° Southeast  Level Estimated
01:34PM 5.9408 -66.0071 140° Southeast  Level Estimated
01:35PM 5.8438 -65.9259 140° Southeast  Level Estimated
01:36PM 5.7467 -65.8448 140° Southeast  Level Estimated
01:37PM 5.6497 -65.7637 140° Southeast  Level Estimated
01:38PM 5.5526 -65.6825 140° Southeast  Level Estimated
01:39PM 5.4555 -65.6015 140° Southeast  Level Estimated
01:40PM 5.3584 -65.5204 140° Southeast  Level Estimated
01:41PM 5.2613 -65.4394 140° Southeast  Level Estimated
01:42PM 5.1642 -65.3584 140° Southeast  Level Estimated
01:43PM 5.0671 -65.2774 140° Southeast  Level Estimated
01:44PM 4.9700 -65.1965 140° Southeast  Level Estimated
01:45PM 4.8728 -65.1155 140° Southeast  Level Estimated
01:46PM 4.7757 -65.0346 140° Southeast  Level Estimated
01:47PM 4.6785 -64.9537 140° Southeast  Level Estimated
01:48PM 4.5813 -64.8729 140° Southeast  Level Estimated
01:49PM 4.4841 -64.7920 140° Southeast  Level Estimated
01:50PM 4.3870 -64.7112 140° Southeast  Level Estimated
01:51PM 4.2898 -64.6304 140° Southeast  Level Estimated
01:52PM 4.1926 -64.5497 140° Southeast  Level Estimated
01:53PM 4.0953 -64.4689 140° Southeast  Level Estimated
01:54PM 3.9981 -64.3882 140° Southeast  Level Estimated
01:55PM 3.9009 -64.3074 140° Southeast  Level Estimated
01:56PM 3.8037 -64.2267 140° Southeast  Level Estimated
01:57PM 3.7064 -64.1461 140° Southeast  Level Estimated
01:58PM 3.6092 -64.0654 140° Southeast  Level Estimated
01:59PM 3.5119 -63.9848 140° Southeast  Level Estimated
02:00PM 3.4146 -63.9041 140° Southeast  Level Estimated
02:01PM 3.3174 -63.8235 140° Southeast  Level Estimated
02:02PM 3.2201 -63.7429 140° Southeast  Level Estimated
02:03PM 3.1228 -63.6623 140° Southeast  Level Estimated
02:04PM 3.0255 -63.5818 140° Southeast  Level Estimated
02:05PM 2.9282 -63.5012 140° Southeast  Level Estimated
02:06PM 2.8309 -63.4207 140° Southeast  Level Estimated
02:07PM 2.7336 -63.3402 140° Southeast  Level Estimated
02:08PM 2.6363 -63.2597 140° Southeast  Level Estimated
02:09PM 2.5390 -63.1792 140° Southeast  Level Estimated
02:10PM 2.4416 -63.0987 140° Southeast  Level Estimated
02:11PM 2.3443 -63.0182 140° Southeast  Level Estimated
02:12PM 2.2470 -62.9378 140° Southeast  Level Estimated
02:13PM 2.1497 -62.8573 140° Southeast  Level Estimated
02:14PM 2.0523 -62.7769 140° Southeast  Level Estimated
02:15PM 1.9550 -62.6964 140° Southeast  Level Estimated
02:16PM 1.8576 -62.6160 140° Southeast  Level Estimated
02:17PM 1.7603 -62.5356 140° Southeast  Level Estimated
02:18PM 1.6629 -62.4552 140° Southeast  Level Estimated
02:19PM 1.5655 -62.3748 140° Southeast  Level Estimated
02:20PM 1.4682 -62.2944 140° Southeast  Level Estimated
02:21PM 1.3708 -62.2140 140° Southeast  Level Estimated
02:22PM 1.2734 -62.1337 140° Southeast  Level Estimated
02:23PM 1.1761 -62.0533 140° Southeast  Level Estimated
02:24PM 1.0787 -61.9729 140° Southeast  Level Estimated
02:25PM 0.9813 -61.8926 140° Southeast  Level Estimated
02:26PM 0.8839 -61.8122 140° Southeast  Level Estimated
02:27PM 0.7866 -61.7319 140° Southeast  Level Estimated
02:28PM 0.6892 -61.6515 140° Southeast  Level Estimated
02:29PM 0.5918 -61.5712 140° Southeast  Level Estimated
02:30PM 0.4944 -61.4908 140° Southeast  Level Estimated
02:31PM 0.3970 -61.4105 140° Southeast  Level Estimated
02:32PM 0.2997 -61.3302 140° Southeast  Level Estimated
02:33PM 0.2023 -61.2498 140° Southeast  Level Estimated
02:34PM 0.1049 -61.1695 140° Southeast  Level Estimated
02:35PM 0.0075 -61.0892 140° Southeast  Level Estimated
02:36PM -0.0899 -61.0088 140° Southeast  Level Estimated
02:37PM -0.1873 -60.9285 140° Southeast  Level Estimated
02:38PM -0.2847 -60.8482 140° Southeast  Level Estimated
02:39PM -0.3821 -60.7678 140° Southeast  Level Estimated
02:40PM -0.4795 -60.6875 140° Southeast  Level Estimated
02:41PM -0.5768 -60.6072 140° Southeast  Level Estimated
02:42PM -0.6742 -60.5268 140° Southeast  Level Estimated
02:43PM -0.7716 -60.4465 140° Southeast  Level Estimated
02:44PM -0.8690 -60.3661 140° Southeast  Level Estimated
02:44PM -1.7280 -61.6960 140° Southeast 442 509 33,000  Level FlightAware
02:44PM -1.7820 -61.6520 141° Southeast 442 509 33,000  Level FlightAware
02:45PM -1.8470 -61.6000 141° Southeast 440 506 33,000  Level FlightAware
02:45PM -1.9010 -61.5560 141° Southeast 437 503 33,000  Level FlightAware
02:46PM -1.9640 -61.5060 142° Southeast 435 501 33,000  Level FlightAware
02:47PM -2.0170 -61.4690 145° Southeast 435 501 33,000  Level FlightAware
02:47PM -2.0770 -61.4290 146° Southeast 434 499 33,000  Level FlightAware
02:48PM -2.1290 -61.3940 146° Southeast 433 498 33,000  Level FlightAware
02:48PM -2.1970 -61.3470 145° Southeast 436 502 33,000  Level FlightAware
02:49PM -2.2480 -61.3120 146° Southeast 436 502 33,000 600 Level FlightAware
02:50PM -2.3110 -61.2670 144° Southeast 436 502 33,700 1,320 Climbing FlightAware
02:50PM -2.3700 -61.2270 146° Southeast 433 498 34,700 1,080 Climbing FlightAware
02:51PM -2.4230 -61.1900 145° Southeast 432 497 35,000 240 Climbing FlightAware
02:51PM -2.4840 -61.1480 145° Southeast 429 494 35,000  Level FlightAware
02:52PM -2.5410 -61.1090 146° Southeast 426 490 35,000  Level FlightAware
02:52PM -2.5990 -61.0690 145° Southeast 427 491 35,000  Level FlightAware
02:53PM -2.6530 -61.0320 146° Southeast 428 493 35,000  Level FlightAware
02:54PM -2.7110 -60.9920 145° Southeast 428 493 35,000  Level FlightAware
02:54PM -2.7730 -60.9490 145° Southeast 427 491 35,000  Level FlightAware
02:55PM -2.8280 -60.9120 146° Southeast 427 491 35,000  Level FlightAware
02:55PM -2.8810 -60.8750 145° Southeast 428 493 35,000  Level FlightAware
02:56PM -2.9390 -60.8350 145° Southeast 430 495 35,000  Level FlightAware
02:56PM -2.9960 -60.7960 146° Southeast 432 497 35,000  Level FlightAware
02:57PM -3.0550 -60.7550 145° Southeast 434 499 35,000  Level FlightAware
02:58PM -3.1160 -60.7130 145° Southeast 436 502 35,000  Level FlightAware
02:58PM -3.1760 -60.6720 146° Southeast 435 501 35,000  Level FlightAware
02:59PM -3.2360 -60.6300 145° Southeast 436 502 35,000  Level FlightAware
02:59PM -3.2880 -60.5920 144° Southeast 438 504 35,000  Level FlightAware
03:00PM -3.3450 -60.5460 141° Southeast 438 504 35,000  Level FlightAware
03:01PM -3.3970 -60.5040 141° Southeast 440 506 35,000  Level FlightAware
03:01PM -3.4540 -60.4570 141° Southeast 440 506 35,000  Level FlightAware
03:02PM -3.5280 -60.3900 138° Southeast 440 506 35,000  Level FlightAware
03:03PM -3.5990 -60.3350 142° Southeast 437 503 35,000  Level FlightAware
03:03PM -3.6560 -60.2960 146° Southeast 438 504 35,000  Level FlightAware
03:04PM -3.7070 -60.2660 150° Southeast 439 505 35,000  Level FlightAware
03:04PM -3.7720 -60.2290 150° Southeast 439 505 35,000  Level FlightAware
03:05PM -3.8410 -60.1870 149° Southeast 440 506 35,000  Level FlightAware
03:06PM -3.9210 -60.1380 149° Southeast 442 509 35,000  Level FlightAware
03:06PM -3.9740 -60.1050 148° Southeast 442 509 35,000  Level FlightAware
03:07PM -4.0450 -60.0610 148° Southeast 442 509 35,000  Level FlightAware
03:08PM -4.0990 -60.0260 147° Southeast 442 509 35,000  Level FlightAware
03:08PM -4.1510 -59.9940 148° Southeast 442 509 35,000  Level FlightAware
03:09PM -4.2040 -59.9610 148° Southeast 442 509 35,000  Level FlightAware
03:10PM -4.2570 -59.9280 148° Southeast 442 509 35,000  Level FlightAware
03:10PM -4.3110 -59.8930 147° Southeast 442 509 35,000  Level FlightAware
03:11PM -4.3530 -59.8680 149° Southeast 442 509 35,000  Level FlightAware
03:11PM -4.4060 -59.8340 147° Southeast 442 509 35,000  Level FlightAware
03:12PM -4.4760 -59.7900 148° Southeast 442 509 35,000  Level FlightAware
03:13PM -4.5300 -59.7570 149° Southeast 442 509 35,000  Level FlightAware
03:13PM -4.5830 -59.7230 147° Southeast 442 509 35,000  Level FlightAware
03:14PM -4.6360 -59.6900 148° Southeast 442 509 35,000  Level FlightAware
03:15PM -4.6900 -59.6560 148° Southeast 442 509 35,000  Level FlightAware
03:15PM -4.7430 -59.6230 148° Southeast 442 509 35,000  Level FlightAware
03:18PM -4.9521 -59.4178 136° Southeast  Level Estimated
03:19PM -5.0423 -59.3291 136° Southeast  Level Estimated
03:20PM -5.1325 -59.2405 136° Southeast  Level Estimated
03:21PM -5.2227 -59.1518 136° Southeast  Level Estimated
03:22PM -5.3129 -59.0630 136° Southeast  Level Estimated
03:23PM -5.4030 -58.9743 136° Southeast  Level Estimated
03:24PM -5.4932 -58.8855 136° Southeast  Level Estimated
03:25PM -5.5834 -58.7967 136° Southeast  Level Estimated
03:26PM -5.6735 -58.7079 136° Southeast  Level Estimated
03:27PM -5.7636 -58.6191 136° Southeast  Level Estimated
03:28PM -5.8537 -58.5302 136° Southeast  Level Estimated
03:29PM -5.9438 -58.4413 136° Southeast  Level Estimated
03:30PM -6.0339 -58.3524 136° Southeast  Level Estimated
03:31PM -6.1240 -58.2634 136° Southeast  Level Estimated
03:32PM -6.2140 -58.1744 136° Southeast  Level Estimated
03:33PM -6.3041 -58.0854 135° Southeast  Level Estimated
03:34PM -6.3941 -57.9963 135° Southeast  Level Estimated
03:35PM -6.4841 -57.9072 135° Southeast  Level Estimated
03:36PM -6.5741 -57.8181 135° Southeast  Level Estimated
03:37PM -6.6641 -57.7290 135° Southeast  Level Estimated
03:38PM -6.7540 -57.6398 135° Southeast  Level Estimated
03:39PM -6.8439 -57.5506 135° Southeast  Level Estimated
03:40PM -6.9339 -57.4613 135° Southeast  Level Estimated
03:41PM -7.0238 -57.3720 135° Southeast  Level Estimated
03:42PM -7.1137 -57.2827 135° Southeast  Level Estimated
03:43PM -7.2035 -57.1934 135° Southeast  Level Estimated
03:44PM -7.2934 -57.1040 135° Southeast  Level Estimated
03:45PM -7.3833 -57.0145 135° Southeast  Level Estimated
03:46PM -7.4731 -56.9251 135° Southeast  Level Estimated
03:47PM -7.5629 -56.8356 135° Southeast  Level Estimated
03:48PM -7.6527 -56.7461 135° Southeast  Level Estimated
03:49PM -7.7424 -56.6565 135° Southeast  Level Estimated
03:50PM -7.8322 -56.5669 135° Southeast  Level Estimated
03:51PM -7.9219 -56.4772 135° Southeast  Level Estimated
03:52PM -8.0116 -56.3875 135° Southeast  Level Estimated
03:53PM -8.1013 -56.2978 135° Southeast  Level Estimated
03:54PM -8.1910 -56.2080 135° Southeast  Level Estimated
03:55PM -8.2806 -56.1182 135° Southeast  Level Estimated
03:56PM -8.3703 -56.0284 135° Southeast  Level Estimated
03:57PM -8.4599 -55.9385 135° Southeast  Level Estimated
03:58PM -8.5495 -55.8485 135° Southeast  Level Estimated
03:59PM -8.6390 -55.7586 135° Southeast  Level Estimated
04:00PM -8.7286 -55.6685 135° Southeast  Level Estimated
04:01PM -8.8181 -55.5785 135° Southeast  Level Estimated
04:02PM -8.9076 -55.4884 135° Southeast  Level Estimated
04:03PM -8.9971 -55.3982 135° Southeast  Level Estimated
04:04PM -9.0866 -55.3080 135° Southeast  Level Estimated
04:05PM -9.1760 -55.2178 135° Southeast  Level Estimated
04:06PM -9.2654 -55.1275 135° Southeast  Level Estimated
04:07PM -9.3548 -55.0372 135° Southeast  Level Estimated
04:08PM -9.4442 -54.9468 135° Southeast  Level Estimated
04:09PM -9.5335 -54.8564 135° Southeast  Level Estimated
04:10PM -9.6229 -54.7659 135° Southeast  Level Estimated
04:11PM -9.7122 -54.6754 135° Southeast  Level Estimated
04:12PM -9.8014 -54.5848 135° Southeast  Level Estimated
04:13PM -9.8907 -54.4942 135° Southeast  Level Estimated
04:14PM -9.9799 -54.4035 135° Southeast  Level Estimated
04:15PM -10.0691 -54.3128 135° Southeast  Level Estimated
04:16PM -10.1583 -54.2220 135° Southeast  Level Estimated
04:17PM -10.2475 -54.1312 135° Southeast  Level Estimated
04:18PM -10.3366 -54.0404 135° Southeast  Level Estimated
04:19PM -10.4257 -53.9494 135° Southeast  Level Estimated
04:20PM -10.5148 -53.8585 135° Southeast  Level Estimated
04:21PM -10.6039 -53.7674 135° Southeast  Level Estimated
04:22PM -10.6929 -53.6764 135° Southeast  Level Estimated
04:23PM -10.7819 -53.5852 135° Southeast  Level Estimated
04:24PM -10.8708 -53.4941 135° Southeast  Level Estimated
04:25PM -10.9598 -53.4028 135° Southeast  Level Estimated
04:26PM -11.0487 -53.3115 135° Southeast  Level Estimated
04:27PM -11.1376 -53.2202 135° Southeast  Level Estimated
04:28PM -11.2265 -53.1288 135° Southeast  Level Estimated
04:29PM -11.3153 -53.0373 135° Southeast  Level Estimated
04:30PM -11.4041 -52.9458 135° Southeast  Level Estimated
04:31PM -11.4929 -52.8542 135° Southeast  Level Estimated
04:32PM -11.5817 -52.7626 135° Southeast  Level Estimated
04:33PM -11.6704 -52.6709 135° Southeast  Level Estimated
04:34PM -11.7591 -52.5792 135° Southeast  Level Estimated
04:35PM -11.8477 -52.4874 135° Southeast  Level Estimated
04:36PM -11.9364 -52.3955 135° Southeast  Level Estimated
04:37PM -12.0250 -52.3036 135° Southeast  Level Estimated
04:38PM -12.1136 -52.2116 135° Southeast  Level Estimated
04:39PM -12.2021 -52.1195 135° Southeast  Level Estimated
04:40PM -12.2907 -52.0274 135° Southeast  Level Estimated
04:41PM -12.3791 -51.9352 135° Southeast  Level Estimated
04:42PM -12.4676 -51.8430 134° Southeast  Level Estimated
04:43PM -12.5560 -51.7507 134° Southeast  Level Estimated
04:44PM -12.6444 -51.6583 134° Southeast  Level Estimated
04:45PM -12.7327 -51.5659 134° Southeast  Level Estimated
04:46PM -12.8211 -51.4734 134° Southeast  Level Estimated
04:47PM -12.9094 -51.3809 134° Southeast  Level Estimated
04:48PM -12.9976 -51.2882 134° Southeast  Level Estimated
04:49PM -13.0859 -51.1955 134° Southeast  Level Estimated
04:50PM -13.1741 -51.1028 134° Southeast  Level Estimated
04:51PM -13.2622 -51.0100 134° Southeast  Level Estimated
04:52PM -13.3504 -50.9171 134° Southeast  Level Estimated
04:53PM -13.4384 -50.8241 134° Southeast  Level Estimated
04:54PM -13.5265 -50.7311 134° Southeast  Level Estimated
04:55PM -13.6145 -50.6380 134° Southeast  Level Estimated
04:56PM -13.7025 -50.5449 134° Southeast  Level Estimated
04:57PM -13.7905 -50.4516 134° Southeast  Level Estimated
04:58PM -13.8784 -50.3583 134° Southeast  Level Estimated
04:59PM -13.9663 -50.2650 134° Southeast  Level Estimated
05:00PM -14.0541 -50.1715 134° Southeast  Level Estimated
05:01PM -14.1420 -50.0780 134° Southeast  Level Estimated
05:02PM -14.2297 -49.9844 134° Southeast  Level Estimated
05:03PM -14.3175 -49.8908 134° Southeast  Level Estimated
05:04PM -14.4052 -49.7970 134° Southeast  Level Estimated
05:05PM -14.4929 -49.7032 134° Southeast  Level Estimated
05:06PM -14.5805 -49.6093 134° Southeast  Level Estimated
05:07PM -14.6681 -49.5154 134° Southeast  Level Estimated
05:08PM -14.7556 -49.4213 134° Southeast  Level Estimated
05:09PM -14.8432 -49.3272 134° Southeast  Level Estimated
05:09PM -14.8670 -49.8280 134° Southeast 461 531 37,000  Level FlightAware
05:10PM -14.9306 -49.2331 134° Southeast  Level Estimated
05:10PM -14.9160 -49.7670 130° Southeast 461 531 37,000  Level FlightAware
05:10PM -14.9630 -49.7070 129° Southeast 463 533 37,000  Level FlightAware
05:11PM -15.0110 -49.6470 130° Southeast 464 534 37,000  Level FlightAware
05:12PM -15.0770 -49.5640 129° Southeast 465 535 37,000  Level FlightAware
05:12PM -15.1260 -49.5020 129° Southeast 464 534 37,000  Level FlightAware
05:13PM -15.1720 -49.4440 129° Southeast 464 534 37,000  Level FlightAware
05:13PM -15.2220 -49.3820 130° Southeast 464 534 37,000  Level FlightAware
05:14PM -15.2690 -49.3220 129° Southeast 464 534 37,000  Level FlightAware
05:15PM -15.3170 -49.2610 129° Southeast 464 534 37,000  Level FlightAware
05:15PM -15.3710 -49.1920 129° Southeast 464 534 37,000  Level FlightAware
05:16PM -15.4250 -49.1240 129° Southeast 464 534 37,000  Level FlightAware
05:17PM -15.4720 -49.0640 129° Southeast 464 534 37,000  Level FlightAware
05:17PM -15.5140 -49.0110 129° Southeast 465 535 37,000  Level FlightAware
05:18PM -15.5610 -48.9510 129° Southeast 465 535 37,000  Level FlightAware
05:18PM -15.6090 -48.8900 129° Southeast 465 535 37,000  Level FlightAware
05:19PM -15.6560 -48.8300 129° Southeast 465 535 37,000  Level FlightAware
05:19PM -15.7050 -48.7690 130° Southeast 466 536 37,000  Level FlightAware
05:20PM -15.7590 -48.6990 129° Southeast 465 535 37,000  Level FlightAware
05:21PM -15.8070 -48.6390 130° Southeast 466 536 37,000  Level FlightAware
05:21PM -15.8470 -48.5880 129° Southeast 466 536 37,000  Level FlightAware
05:22PM -15.8950 -48.5260 129° Southeast 466 536 37,000  Level FlightAware
05:22PM -15.9490 -48.4570 129° Southeast 467 537 37,000  Level FlightAware
05:23PM -15.9880 -48.4070 129° Southeast 468 539 37,000  Level FlightAware
05:23PM -16.0380 -48.3430 129° Southeast 467 537 37,000  Level FlightAware
05:24PM -16.0920 -48.2730 129° Southeast 468 539 37,000  Level FlightAware
05:25PM -16.1330 -48.2220 130° Southeast 469 540 37,000  Level FlightAware
05:25PM -16.1810 -48.1600 129° Southeast 469 540 37,000  Level FlightAware
05:26PM -16.2350 -48.0900 129° Southeast 469 540 37,000  Level FlightAware
05:26PM -16.2770 -48.0360 129° Southeast 469 540 37,000  Level FlightAware
05:27PM -16.3230 -47.9760 129° Southeast 470 541 37,000  Level FlightAware
05:28PM -16.3790 -47.9050 129° Southeast 472 543 37,000  Level FlightAware
05:28PM -16.4270 -47.8420 128° Southeast 472 543 37,000  Level FlightAware
05:29PM -16.4680 -47.7900 129° Southeast 472 543 37,000  Level FlightAware
05:29PM -16.5220 -47.7200 129° Southeast 473 544 37,000  Level FlightAware
05:30PM -16.5710 -47.6560 129° Southeast 473 544 37,000  Level FlightAware
05:30PM -16.6100 -47.6050 129° Southeast 472 543 37,000  Level FlightAware
05:31PM -16.6610 -47.5420 130° Southeast 473 544 37,000  Level FlightAware
05:32PM -16.7200 -47.4760 133° Southeast 472 543 37,000  Level FlightAware
05:32PM -16.7680 -47.4230 133° Southeast 472 543 37,000  Level FlightAware
05:33PM -16.8210 -47.3660 134° Southeast 473 544 37,000  Level FlightAware
05:33PM -16.8760 -47.3050 133° Southeast 473 544 37,000  Level FlightAware
05:34PM -16.9330 -47.2430 134° Southeast 473 544 37,000  Level FlightAware
05:35PM -16.9910 -47.1800 134° Southeast 475 547 37,000  Level FlightAware
05:35PM -17.0460 -47.1200 134° Southeast 476 548 37,000  Level FlightAware
05:36PM -17.1190 -47.0410 134° Southeast 476 548 37,000  Level FlightAware
05:37PM -17.1740 -46.9800 133° Southeast 477 549 37,000  Level FlightAware
05:37PM -17.2300 -46.9200 134° Southeast 475 547 37,000  Level FlightAware
05:38PM -17.2940 -46.8490 133° Southeast 476 548 37,000  Level FlightAware
05:39PM -17.3480 -46.7890 133° Southeast 475 547 37,000  Level FlightAware
05:39PM -17.3990 -46.7340 134° Southeast 475 547 37,000  Level FlightAware
05:41PM -17.5300 -46.5870 133° Southeast 475 547 37,000  Level FlightAware
05:42PM -17.6090 -46.5010 134° Southeast 475 547 37,000  Level FlightAware
05:42PM -17.6570 -46.4470 133° Southeast 475 547 37,000  Level FlightAware
05:43PM -17.7140 -46.3830 133° Southeast 476 548 37,000  Level FlightAware
05:43PM -17.7650 -46.3260 133° Southeast 475 547 37,000  Level FlightAware
05:44PM -17.8220 -46.2620 133° Southeast 474 545 37,000  Level FlightAware
05:44PM -17.8700 -46.2080 133° Southeast 474 545 37,000  Level FlightAware
05:45PM -17.9170 -46.1550 133° Southeast 474 545 37,000  Level FlightAware
05:46PM -17.9630 -46.1040 133° Southeast 474 545 37,000  Level FlightAware
05:46PM -18.0280 -46.0320 134° Southeast 475 547 37,000  Level FlightAware
05:47PM -18.0850 -45.9690 134° Southeast 475 547 37,000  Level FlightAware
05:48PM -18.1450 -45.9010 133° Southeast 476 548 37,000  Level FlightAware
05:48PM -18.2160 -45.8210 133° Southeast 477 549 37,000  Level FlightAware
05:49PM -18.2880 -45.7400 133° Southeast 479 551 37,000  Level FlightAware
05:50PM -18.3320 -45.6890 132° Southeast 479 551 37,000  Level FlightAware
05:50PM -18.4010 -45.6130 134° Southeast 480 552 37,000  Level FlightAware
05:51PM -18.4510 -45.5560 133° Southeast 481 554 37,000  Level FlightAware
05:51PM -18.4960 -45.5080 135° Southeast 480 552 37,000 -360 Level FlightAware
05:52PM -18.5590 -45.4400 134° Southeast 469 540 36,600 -1,620 Descending FlightAware
05:53PM -18.6220 -45.3720 134° Southeast 464 534 34,900 -3,240 Descending FlightAware
05:53PM -18.6840 -45.3040 134° Southeast 460 529 32,300 -4,560 Descending FlightAware
05:54PM -18.7350 -45.2490 134° Southeast 466 536 29,200 -4,500 Descending FlightAware
05:55PM -18.7950 -45.1840 134° Southeast 466 536 26,700 -3,240 Descending FlightAware
05:55PM -18.8560 -45.1170 134° Southeast 454 522 25,000 -2,460 Descending FlightAware
05:56PM -18.9050 -45.0630 134° Southeast 444 511 23,600 -2,400 Descending FlightAware
05:56PM -18.9520 -45.0110 134° Southeast 435 501 22,200 -2,580 Descending FlightAware
05:57PM -19.0040 -44.9550 134° Southeast 429 494 20,700 -2,400 Descending FlightAware
05:58PM -19.0590 -44.8950 134° Southeast 421 484 19,200 -2,340 Descending FlightAware
05:58PM -19.1050 -44.8440 134° Southeast 413 475 17,800 -2,340 Descending FlightAware
05:59PM -19.1480 -44.7970 134° Southeast 406 467 16,500 -1,980 Descending FlightAware
05:59PM -19.1900 -44.7390 127° Southeast 394 453 15,500 -1,740 Descending FlightAware
06:00PM -19.2170 -44.6780 115° Southeast 384 442 14,500 -1,860 Descending FlightAware
06:01PM -19.2410 -44.6220 114° Southeast 378 435 13,300 -2,160 Descending FlightAware
06:01PM -19.2670 -44.5590 114° Southeast 370 426 12,000 -2,160 Descending FlightAware
06:02PM -19.2900 -44.5020 113° Southeast 362 417 10,800 -1,320 Descending FlightAware
06:02PM -19.3130 -44.4480 114° Southeast 331 381 10,500 -840 Descending FlightAware
06:03PM -19.3310 -44.4030 113° Southeast 308 354 9,900 -900 Descending FlightAware
06:03PM -19.3410 -44.3780 113° Southeast 279 321 9,800 -480 Descending FlightAware
06:04PM -19.3510 -44.3540 114° Southeast 269 310 9,600 -1,020 Descending FlightAware
06:04PM -19.3560 -44.3410 112° Southeast 268 308 9,300 -1,500 Descending FlightAware
06:04PM -19.3680 -44.3130 114° Southeast 268 308 8,700 -1,380 Descending FlightAware
06:04PM -19.3790 -44.2870 114° Southeast 268 308 8,300 -1,440 Descending FlightAware
06:05PM -19.3890 -44.2640 115° Southeast 267 307 7,800 -1,380 Descending FlightAware
06:05PM -19.3980 -44.2420 113° Southeast 258 297 7,400 -1,200 Descending FlightAware
06:05PM -19.4080 -44.2170 113° Southeast 243 280 7,000 -1,500 Descending FlightAware
06:06PM -19.4180 -44.1920 113° Southeast 236 272 6,300 -1,500 Descending FlightAware
06:06PM -19.4270 -44.1700 113° Southeast 227 261 5,900 -900 Descending FlightAware
06:07PM -19.4360 -44.1530 119° Southeast 215 247 5,700 -600 Descending FlightAware
06:07PM -19.4450 -44.1430 134° Southeast 211 243 5,600 -960 Descending FlightAware
06:07PM -19.4560 -44.1340 142° Southeast 204 235 5,300 -1,080 Descending FlightAware
06:07PM -19.4730 -44.1170 137° Southeast 197 227 4,900 -840 Descending FlightAware
06:08PM -19.4860 -44.1050 139° Southeast 189 217 4,700 -360 Descending FlightAware
06:08PM -19.4960 -44.0960 140° Southeast 183 211 4,700  Level FlightAware
06:08PM -19.5090 -44.0840 139° Southeast 185 213 4,700  Level FlightAware
06:09PM -19.5190 -44.0750 140° Southeast 186 214 4,700  Level FlightAware
06:09PM -19.5320 -44.0630 139° Southeast 179 206 4,700 -360 Level FlightAware
06:09PM -19.5440 -44.0520 139° Southeast 168 193 4,500 -900 Descending FlightAware
06:09PM -19.5520 -44.0440 137° Southeast 153 176 4,200 -780 Descending FlightAware
06:10PM -19.5590 -44.0380 141° Southeast 149 171 4,100 -720 Descending FlightAware
06:10PM -19.5700 -44.0270 137° Southeast 143 165 3,800 -900 Descending FlightAware
06:10PM -19.5780 -44.0210 145° Southeast 143 165 3,600 -420 Descending FlightAware
06:11PM -19.5810 -44.0170 129° Southeast 142 163 3,500 -360 Descending FlightAware
06:11PM -19.5910 -44.0080 140° Southeast 140 161 3,300 -660 Descending FlightAware
06:12PM -19.6070 -43.9940 141° Southeast 140 161 2,900 -840 Descending FlightAware
06:12PM -19.6340 -43.9690 139° Southeast 86 99 -5,460 Descending FlightAware